SBI1073 UWGG-UWWW
Flight info
| Callsign | SBI1073 |
|---|---|
| Flight time | N/A |
| Altitude | 37000 |
| Route | OKSUD2S OKSUD T778 RUBEK RUBEK8T |
| Aircraft | A320/M-SDE3FGHIRWY/LB1 |
Departure
| Time | 2026-04-24 16:40 |
|---|---|
| Airport | Nizhny Novgorod / Strigino International Airport (UWGG) |
Arrival
| Time | N/A |
|---|---|
| Airport | Kurumoch International Airport (UWWW) |
| Time | Latitude | Longitude | Altitude | Speed | Heading |
|---|---|---|---|---|---|
| 2026-04-24 16:06 | 56.21947 | 43.78819 | 266 ft | 0 kts | 101° |
| 2026-04-24 16:32 | 56.21948 | 43.78814 | 266 ft | 2 kts | 101° |
| 2026-04-24 16:33 | 56.21951 | 43.78782 | 266 ft | 3 kts | 101° |
| 2026-04-24 16:33 | 56.21955 | 43.78747 | 266 ft | 3 kts | 103° |
| 2026-04-24 16:33 | 56.21960 | 43.78721 | 266 ft | 3 kts | 154° |
| 2026-04-24 16:33 | 56.21972 | 43.78717 | 266 ft | 1 kts | 192° |
| 2026-04-24 16:34 | 56.21985 | 43.78722 | 266 ft | 2 kts | 192° |
| 2026-04-24 16:34 | 56.21993 | 43.78725 | 266 ft | 0 kts | 192° |
| 2026-04-24 16:36 | 56.21963 | 43.78714 | 266 ft | 8 kts | 192° |
| 2026-04-24 16:36 | 56.21950 | 43.78709 | 266 ft | 1 kts | 193° |
| 2026-04-24 16:37 | 56.21914 | 43.78642 | 266 ft | 11 kts | 238° |
| 2026-04-24 16:37 | 56.21836 | 43.78580 | 266 ft | 15 kts | 191° |
| 2026-04-24 16:37 | 56.21721 | 43.78538 | 266 ft | 18 kts | 192° |
| 2026-04-24 16:37 | 56.21587 | 43.78490 | 266 ft | 20 kts | 191° |
| 2026-04-24 16:38 | 56.21484 | 43.78421 | 266 ft | 8 kts | 233° |
| 2026-04-24 16:38 | 56.21486 | 43.78312 | 266 ft | 15 kts | 282° |
| 2026-04-24 16:38 | 56.21533 | 43.78070 | 268 ft | 19 kts | 332° |
| 2026-04-24 16:38 | 56.21599 | 43.78074 | 269 ft | 0 kts | 11° |
| 2026-04-24 16:39 | 56.21616 | 43.78080 | 269 ft | 20 kts | 11° |
| 2026-04-24 16:39 | 56.22019 | 43.78223 | 267 ft | 94 kts | 11° |
| 2026-04-24 16:40 | 56.22850 | 43.78524 | 267 ft | 148 kts | 11° |
| 2026-04-24 16:40 | 56.23977 | 43.78943 | 586 ft | 169 kts | 11° |
| 2026-04-24 16:40 | 56.25134 | 43.79380 | 1329 ft | 172 kts | 11° |
| 2026-04-24 16:40 | 56.26380 | 43.79863 | 1734 ft | 196 kts | 13° |
| 2026-04-24 16:41 | 56.27797 | 43.80393 | 2176 ft | 220 kts | 13° |
| 2026-04-24 16:41 | 56.29381 | 43.80969 | 2671 ft | 243 kts | 13° |
| 2026-04-24 16:41 | 56.31075 | 43.81582 | 3423 ft | 253 kts | 13° |
| 2026-04-24 16:41 | 56.32837 | 43.82220 | 4254 ft | 263 kts | 13° |
| 2026-04-24 16:42 | 56.34658 | 43.82881 | 5075 ft | 270 kts | 13° |
| 2026-04-24 16:42 | 56.36549 | 43.83567 | 5936 ft | 276 kts | 13° |
| 2026-04-24 16:42 | 56.38421 | 43.84442 | 6781 ft | 279 kts | 26° |
| 2026-04-24 16:42 | 56.39959 | 43.86519 | 7621 ft | 279 kts | 53° |
| 2026-04-24 16:43 | 56.40867 | 43.89592 | 8477 ft | 279 kts | 77° |
| 2026-04-24 16:43 | 56.40992 | 43.93110 | 9340 ft | 279 kts | 100° |
| 2026-04-24 16:43 | 56.40627 | 43.96680 | 9832 ft | 296 kts | 102° |
| 2026-04-24 16:43 | 56.40207 | 44.00643 | 10092 ft | 321 kts | 102° |
| 2026-04-24 16:44 | 56.39779 | 44.04716 | 10511 ft | 336 kts | 102° |
| 2026-04-24 16:44 | 56.39348 | 44.08901 | 11200 ft | 342 kts | 102° |
| 2026-04-24 16:44 | 56.38891 | 44.13137 | 11928 ft | 346 kts | 106° |
| 2026-04-24 16:44 | 56.38038 | 44.17201 | 12638 ft | 349 kts | 119° |
| 2026-04-24 16:45 | 56.36675 | 44.20814 | 13360 ft | 351 kts | 132° |
| 2026-04-24 16:45 | 56.34859 | 44.23775 | 13995 ft | 353 kts | 146° |
| 2026-04-24 16:45 | 56.32706 | 44.25924 | 14626 ft | 357 kts | 156° |
| 2026-04-24 16:45 | 56.30431 | 44.27788 | 15291 ft | 360 kts | 156° |
| 2026-04-24 16:46 | 56.28889 | 44.29052 | 15715 ft | 362 kts | 156° |
| 2026-04-24 16:46 | 56.26589 | 44.30941 | 16390 ft | 365 kts | 156° |
| 2026-04-24 16:46 | 56.24260 | 44.32860 | 16920 ft | 371 kts | 155° |
| 2026-04-24 16:46 | 56.21903 | 44.34808 | 17521 ft | 375 kts | 155° |
| 2026-04-24 16:47 | 56.19521 | 44.36775 | 18069 ft | 379 kts | 155° |
| 2026-04-24 16:47 | 56.17118 | 44.38758 | 18600 ft | 382 kts | 156° |
| 2026-04-24 16:47 | 56.14688 | 44.40755 | 19121 ft | 385 kts | 156° |
| 2026-04-24 16:47 | 56.12246 | 44.42753 | 19652 ft | 388 kts | 156° |
| 2026-04-24 16:48 | 56.09752 | 44.44796 | 20176 ft | 390 kts | 156° |
| 2026-04-24 16:48 | 56.07272 | 44.46830 | 20700 ft | 393 kts | 156° |
| 2026-04-24 16:48 | 56.04781 | 44.48874 | 21239 ft | 395 kts | 156° |
| 2026-04-24 16:48 | 56.02273 | 44.50922 | 21741 ft | 398 kts | 156° |
| 2026-04-24 16:49 | 55.99751 | 44.52978 | 22234 ft | 400 kts | 156° |
| 2026-04-24 16:49 | 55.97204 | 44.55051 | 22702 ft | 403 kts | 156° |
| 2026-04-24 16:49 | 55.94638 | 44.57135 | 23138 ft | 406 kts | 156° |
| 2026-04-24 16:49 | 55.92060 | 44.59225 | 23522 ft | 409 kts | 156° |
| 2026-04-24 16:50 | 55.90340 | 44.60617 | 23786 ft | 410 kts | 156° |
| 2026-04-24 16:50 | 55.86848 | 44.63435 | 24293 ft | 414 kts | 156° |
| 2026-04-24 16:50 | 55.84219 | 44.65551 | 24680 ft | 416 kts | 156° |
| 2026-04-24 16:50 | 55.81576 | 44.67680 | 25047 ft | 418 kts | 156° |
| 2026-04-24 16:51 | 55.78919 | 44.69817 | 25412 ft | 420 kts | 156° |
| 2026-04-24 16:51 | 55.76246 | 44.71966 | 25781 ft | 423 kts | 156° |
| 2026-04-24 16:51 | 55.73558 | 44.74126 | 26145 ft | 425 kts | 156° |
| 2026-04-24 16:51 | 55.70822 | 44.76321 | 26488 ft | 428 kts | 156° |
| 2026-04-24 16:52 | 55.68138 | 44.78466 | 26847 ft | 430 kts | 156° |
| 2026-04-24 16:52 | 55.65407 | 44.80644 | 27201 ft | 432 kts | 156° |
| 2026-04-24 16:52 | 55.62660 | 44.82837 | 27532 ft | 434 kts | 156° |
| 2026-04-24 16:52 | 55.59896 | 44.85045 | 27873 ft | 437 kts | 155° |
| 2026-04-24 16:53 | 55.57220 | 44.87637 | 28174 ft | 439 kts | 147° |
| 2026-04-24 16:53 | 55.54791 | 44.90932 | 28477 ft | 442 kts | 139° |
| 2026-04-24 16:53 | 55.52532 | 44.94629 | 28781 ft | 445 kts | 138° |
| 2026-04-24 16:53 | 55.50260 | 44.98349 | 29092 ft | 447 kts | 138° |
| 2026-04-24 16:54 | 55.47972 | 45.02080 | 29378 ft | 449 kts | 138° |
| 2026-04-24 16:54 | 55.45651 | 45.05855 | 29734 ft | 448 kts | 138° |
| 2026-04-24 16:54 | 55.43387 | 45.09534 | 30063 ft | 447 kts | 138° |
| 2026-04-24 16:54 | 55.41071 | 45.13292 | 30368 ft | 448 kts | 138° |
| 2026-04-24 16:55 | 55.38778 | 45.17007 | 30648 ft | 449 kts | 139° |
| 2026-04-24 16:55 | 55.36482 | 45.20726 | 30937 ft | 450 kts | 138° |
| 2026-04-24 16:55 | 55.34172 | 45.24461 | 31183 ft | 452 kts | 138° |
| 2026-04-24 16:55 | 55.31853 | 45.28205 | 31369 ft | 453 kts | 138° |
| 2026-04-24 16:56 | 55.27254 | 45.35615 | 31408 ft | 450 kts | 138° |
| 2026-04-24 16:56 | 55.22622 | 45.43051 | 31410 ft | 447 kts | 139° |
| 2026-04-24 16:57 | 55.18000 | 45.50439 | 31410 ft | 447 kts | 139° |
| 2026-04-24 16:57 | 55.13397 | 45.57766 | 31410 ft | 447 kts | 139° |
| 2026-04-24 16:58 | 55.08801 | 45.65064 | 31407 ft | 446 kts | 139° |
| 2026-04-24 16:58 | 55.04204 | 45.72346 | 31396 ft | 447 kts | 139° |
| 2026-04-24 16:59 | 54.99623 | 45.79577 | 31399 ft | 446 kts | 139° |
| 2026-04-24 17:00 | 54.92677 | 45.90498 | 31419 ft | 446 kts | 139° |
| 2026-04-24 17:00 | 54.85730 | 46.01360 | 31400 ft | 446 kts | 139° |
| 2026-04-24 17:01 | 54.78806 | 46.12127 | 31404 ft | 445 kts | 140° |
| 2026-04-24 17:02 | 54.71611 | 46.22268 | 31408 ft | 444 kts | 144° |
| 2026-04-24 17:02 | 54.66733 | 46.28796 | 31409 ft | 444 kts | 144° |
| 2026-04-24 17:03 | 54.59455 | 46.38698 | 31414 ft | 443 kts | 143° |
| 2026-04-24 17:04 | 54.54606 | 46.45367 | 31423 ft | 443 kts | 143° |
| 2026-04-24 17:04 | 54.47377 | 46.55219 | 31421 ft | 442 kts | 143° |
| 2026-04-24 17:05 | 54.42554 | 46.61747 | 31417 ft | 441 kts | 143° |
| 2026-04-24 17:06 | 54.35365 | 46.71461 | 31076 ft | 438 kts | 144° |
| 2026-04-24 17:06 | 54.30519 | 46.77986 | 29542 ft | 437 kts | 144° |
| 2026-04-24 17:06 | 54.28182 | 46.81178 | 28659 ft | 436 kts | 141° |
| 2026-04-24 17:07 | 54.26710 | 46.83612 | 28187 ft | 434 kts | 135° |
| 2026-04-24 17:07 | 54.24274 | 46.89054 | 27321 ft | 428 kts | 123° |
| 2026-04-24 17:07 | 54.21831 | 46.98262 | 26083 ft | 419 kts | 114° |
| 2026-04-24 17:08 | 54.19734 | 47.07406 | 24941 ft | 407 kts | 114° |
| 2026-04-24 17:08 | 54.18702 | 47.11879 | 24380 ft | 402 kts | 113° |
| 2026-04-24 17:08 | 54.17682 | 47.16291 | 23841 ft | 396 kts | 113° |
| 2026-04-24 17:09 | 54.15681 | 47.24890 | 22724 ft | 386 kts | 113° |
| 2026-04-24 17:09 | 54.13712 | 47.33328 | 21434 ft | 378 kts | 113° |
| 2026-04-24 17:10 | 54.12752 | 47.37446 | 20815 ft | 375 kts | 114° |
| 2026-04-24 17:10 | 54.10195 | 47.48377 | 19252 ft | 367 kts | 115° |
| 2026-04-24 17:11 | 54.07347 | 47.60407 | 17324 ft | 366 kts | 115° |
| 2026-04-24 17:12 | 54.02760 | 47.79751 | 12700 ft | 341 kts | 114° |